sensor_id;sensor_type;location;lat;lon;timestamp;P1;durP1;ratioP1;P2;durP2;ratioP2
9773;SDS011;4926;42.670;23.316;2023-08-17T00:02:10;11.65;;;6.65;;
9773;SDS011;4926;42.670;23.316;2023-08-17T00:04:37;9.50;;;6.43;;
9773;SDS011;4926;42.670;23.316;2023-08-17T00:07:04;8.57;;;5.88;;
9773;SDS011;4926;42.670;23.316;2023-08-17T00:09:31;9.32;;;6.60;;
9773;SDS011;4926;42.670;23.316;2023-08-17T00:11:58;13.63;;;6.30;;
9773;SDS011;4926;42.670;23.316;2023-08-17T00:14:25;10.23;;;6.93;;
9773;SDS011;4926;42.670;23.316;2023-08-17T00:16:53;8.23;;;6.55;;
9773;SDS011;4926;42.670;23.316;2023-08-17T00:19:24;14.35;;;6.90;;
9773;SDS011;4926;42.670;23.316;2023-08-17T00:21:53;9.10;;;6.28;;
9773;SDS011;4926;42.670;23.316;2023-08-17T00:24:21;8.90;;;6.65;;
9773;SDS011;4926;42.670;23.316;2023-08-17T00:26:48;11.38;;;6.80;;
9773;SDS011;4926;42.670;23.316;2023-08-17T00:29:15;15.50;;;6.65;;
9773;SDS011;4926;42.670;23.316;2023-08-17T00:31:42;7.97;;;5.70;;
9773;SDS011;4926;42.670;23.316;2023-08-17T00:34:10;8.80;;;6.18;;
9773;SDS011;4926;42.670;23.316;2023-08-17T00:36:38;10.57;;;6.15;;
9773;SDS011;4926;42.670;23.316;2023-08-17T00:39:05;9.43;;;5.78;;
9773;SDS011;4926;42.670;23.316;2023-08-17T00:41:32;8.65;;;5.85;;
9773;SDS011;4926;42.670;23.316;2023-08-17T00:43:59;12.65;;;5.95;;
9773;SDS011;4926;42.670;23.316;2023-08-17T00:46:26;6.95;;;5.20;;
9773;SDS011;4926;42.670;23.316;2023-08-17T00:48:55;6.85;;;5.75;;
9773;SDS011;4926;42.670;23.316;2023-08-17T00:51:29;7.93;;;5.47;;
9773;SDS011;4926;42.670;23.316;2023-08-17T00:53:58;12.02;;;5.68;;
9773;SDS011;4926;42.670;23.316;2023-08-17T00:56:28;7.63;;;5.70;;
9773;SDS011;4926;42.670;23.316;2023-08-17T00:58:55;8.60;;;6.10;;
9773;SDS011;4926;42.670;23.316;2023-08-17T01:01:22;7.97;;;5.47;;
9773;SDS011;4926;42.670;23.316;2023-08-17T01:03:49;9.98;;;6.03;;
9773;SDS011;4926;42.670;23.316;2023-08-17T01:06:16;7.80;;;5.00;;
9773;SDS011;4926;42.670;23.316;2023-08-17T01:08:43;8.95;;;4.90;;
9773;SDS011;4926;42.670;23.316;2023-08-17T01:11:14;12.48;;;5.18;;
9773;SDS011;4926;42.670;23.316;2023-08-17T01:13:49;9.23;;;4.43;;
9773;SDS011;4926;42.670;23.316;2023-08-17T01:16:24;5.80;;;4.72;;
9773;SDS011;4926;42.670;23.316;2023-08-17T01:19:02;5.63;;;4.53;;
9773;SDS011;4926;42.670;23.316;2023-08-17T01:21:35;6.68;;;4.82;;
9773;SDS011;4926;42.670;23.316;2023-08-17T01:24:12;8.30;;;4.53;;
9773;SDS011;4926;42.670;23.316;2023-08-17T01:26:38;6.68;;;4.35;;
9773;SDS011;4926;42.670;23.316;2023-08-17T01:29:05;5.30;;;4.45;;
9773;SDS011;4926;42.670;23.316;2023-08-17T01:31:34;9.20;;;4.47;;
9773;SDS011;4926;42.670;23.316;2023-08-17T01:34:07;4.43;;;4.03;;
9773;SDS011;4926;42.670;23.316;2023-08-17T01:36:39;4.75;;;4.03;;
9773;SDS011;4926;42.670;23.316;2023-08-17T01:39:14;6.82;;;3.92;;
9773;SDS011;4926;42.670;23.316;2023-08-17T01:41:43;5.80;;;3.97;;
9773;SDS011;4926;42.670;23.316;2023-08-17T01:44:15;7.57;;;4.20;;
9773;SDS011;4926;42.670;23.316;2023-08-17T01:46:41;8.70;;;4.07;;
9773;SDS011;4926;42.670;23.316;2023-08-17T01:49:08;6.70;;;3.90;;
9773;SDS011;4926;42.670;23.316;2023-08-17T01:51:35;5.85;;;4.20;;
9773;SDS011;4926;42.670;23.316;2023-08-17T01:54:04;7.28;;;3.72;;
9773;SDS011;4926;42.670;23.316;2023-08-17T01:56:33;6.53;;;4.05;;
9773;SDS011;4926;42.670;23.316;2023-08-17T01:59:00;6.20;;;3.88;;
9773;SDS011;4926;42.670;23.316;2023-08-17T02:01:29;5.57;;;3.80;;
9773;SDS011;4926;42.670;23.316;2023-08-17T02:03:56;6.22;;;3.70;;
9773;SDS011;4926;42.670;23.316;2023-08-17T02:06:25;6.43;;;4.00;;
9773;SDS011;4926;42.670;23.316;2023-08-17T02:08:51;6.30;;;3.80;;
9773;SDS011;4926;42.670;23.316;2023-08-17T02:11:18;7.90;;;4.10;;
9773;SDS011;4926;42.670;23.316;2023-08-17T02:13:47;5.85;;;4.03;;
9773;SDS011;4926;42.670;23.316;2023-08-17T02:16:21;4.65;;;4.00;;
9773;SDS011;4926;42.670;23.316;2023-08-17T02:18:47;8.90;;;4.47;;
9773;SDS011;4926;42.670;23.316;2023-08-17T02:21:14;5.47;;;4.25;;
9773;SDS011;4926;42.670;23.316;2023-08-17T02:23:40;5.93;;;3.83;;
9773;SDS011;4926;42.670;23.316;2023-08-17T02:26:07;8.32;;;3.92;;
9773;SDS011;4926;42.670;23.316;2023-08-17T02:28:37;6.85;;;4.03;;
9773;SDS011;4926;42.670;23.316;2023-08-17T02:31:05;8.85;;;4.22;;
9773;SDS011;4926;42.670;23.316;2023-08-17T02:33:32;6.55;;;3.78;;
9773;SDS011;4926;42.670;23.316;2023-08-17T02:35:59;4.90;;;4.13;;
9773;SDS011;4926;42.670;23.316;2023-08-17T02:38:26;4.10;;;3.47;;
9773;SDS011;4926;42.670;23.316;2023-08-17T02:40:53;8.00;;;4.18;;
9773;SDS011;4926;42.670;23.316;2023-08-17T02:43:19;7.63;;;4.03;;
9773;SDS011;4926;42.670;23.316;2023-08-17T02:45:46;5.53;;;3.70;;
9773;SDS011;4926;42.670;23.316;2023-08-17T02:48:18;4.97;;;3.95;;
9773;SDS011;4926;42.670;23.316;2023-08-17T02:50:44;5.22;;;3.78;;
9773;SDS011;4926;42.670;23.316;2023-08-17T02:53:13;5.18;;;3.80;;
9773;SDS011;4926;42.670;23.316;2023-08-17T02:55:43;7.43;;;3.90;;
9773;SDS011;4926;42.670;23.316;2023-08-17T02:58:10;9.55;;;4.45;;
9773;SDS011;4926;42.670;23.316;2023-08-17T03:00:43;8.60;;;4.07;;
9773;SDS011;4926;42.670;23.316;2023-08-17T03:03:13;6.85;;;4.30;;
9773;SDS011;4926;42.670;23.316;2023-08-17T03:05:43;9.82;;;3.67;;
9773;SDS011;4926;42.670;23.316;2023-08-17T03:08:09;8.65;;;4.38;;
9773;SDS011;4926;42.670;23.316;2023-08-17T03:10:38;7.03;;;4.35;;
9773;SDS011;4926;42.670;23.316;2023-08-17T03:13:08;7.95;;;4.20;;
9773;SDS011;4926;42.670;23.316;2023-08-17T03:15:37;5.88;;;4.28;;
9773;SDS011;4926;42.670;23.316;2023-08-17T03:18:05;5.70;;;3.72;;
9773;SDS011;4926;42.670;23.316;2023-08-17T03:20:31;9.13;;;4.10;;
9773;SDS011;4926;42.670;23.316;2023-08-17T03:23:00;5.88;;;3.70;;
9773;SDS011;4926;42.670;23.316;2023-08-17T03:25:31;5.88;;;4.00;;
9773;SDS011;4926;42.670;23.316;2023-08-17T03:28:00;6.82;;;4.13;;
9773;SDS011;4926;42.670;23.316;2023-08-17T03:30:27;5.95;;;4.05;;
9773;SDS011;4926;42.670;23.316;2023-08-17T03:32:56;5.18;;;3.53;;
9773;SDS011;4926;42.670;23.316;2023-08-17T03:35:23;9.82;;;3.70;;
9773;SDS011;4926;42.670;23.316;2023-08-17T03:37:50;7.15;;;4.20;;
9773;SDS011;4926;42.670;23.316;2023-08-17T03:40:18;6.47;;;3.67;;
9773;SDS011;4926;42.670;23.316;2023-08-17T03:42:44;6.85;;;4.13;;
9773;SDS011;4926;42.670;23.316;2023-08-17T03:45:11;6.68;;;3.80;;
9773;SDS011;4926;42.670;23.316;2023-08-17T03:47:41;9.60;;;3.55;;
9773;SDS011;4926;42.670;23.316;2023-08-17T03:50:08;4.57;;;4.18;;
9773;SDS011;4926;42.670;23.316;2023-08-17T03:52:35;6.47;;;3.75;;
9773;SDS011;4926;42.670;23.316;2023-08-17T03:55:02;4.05;;;3.58;;
9773;SDS011;4926;42.670;23.316;2023-08-17T03:57:36;5.15;;;3.80;;
9773;SDS011;4926;42.670;23.316;2023-08-17T04:00:03;7.15;;;3.75;;
9773;SDS011;4926;42.670;23.316;2023-08-17T04:02:31;4.50;;;3.65;;
9773;SDS011;4926;42.670;23.316;2023-08-17T04:05:01;5.63;;;4.00;;
9773;SDS011;4926;42.670;23.316;2023-08-17T04:07:27;9.77;;;4.13;;
9773;SDS011;4926;42.670;23.316;2023-08-17T04:09:54;7.10;;;3.70;;
9773;SDS011;4926;42.670;23.316;2023-08-17T04:12:21;7.00;;;3.70;;
9773;SDS011;4926;42.670;23.316;2023-08-17T04:14:49;5.40;;;4.13;;
9773;SDS011;4926;42.670;23.316;2023-08-17T04:17:15;7.47;;;3.72;;
9773;SDS011;4926;42.670;23.316;2023-08-17T04:19:42;6.88;;;3.80;;
9773;SDS011;4926;42.670;23.316;2023-08-17T04:22:09;6.65;;;3.60;;
9773;SDS011;4926;42.670;23.316;2023-08-17T04:24:38;7.38;;;4.20;;
9773;SDS011;4926;42.670;23.316;2023-08-17T04:27:05;4.72;;;3.45;;
9773;SDS011;4926;42.670;23.316;2023-08-17T04:29:32;6.32;;;3.95;;
9773;SDS011;4926;42.670;23.316;2023-08-17T04:32:00;5.60;;;3.50;;
9773;SDS011;4926;42.670;23.316;2023-08-17T04:34:27;6.03;;;3.53;;
9773;SDS011;4926;42.670;23.316;2023-08-17T04:36:53;6.78;;;3.63;;
9773;SDS011;4926;42.670;23.316;2023-08-17T04:39:20;4.50;;;3.83;;
9773;SDS011;4926;42.670;23.316;2023-08-17T04:41:47;6.35;;;4.03;;
9773;SDS011;4926;42.670;23.316;2023-08-17T04:44:13;6.45;;;3.97;;
9773;SDS011;4926;42.670;23.316;2023-08-17T04:46:40;6.03;;;3.95;;
9773;SDS011;4926;42.670;23.316;2023-08-17T04:49:08;7.70;;;3.42;;
9773;SDS011;4926;42.670;23.316;2023-08-17T04:51:35;4.68;;;3.47;;
9773;SDS011;4926;42.670;23.316;2023-08-17T04:54:03;13.02;;;4.22;;
9773;SDS011;4926;42.670;23.316;2023-08-17T04:56:30;4.13;;;3.50;;
9773;SDS011;4926;42.670;23.316;2023-08-17T04:58:57;8.25;;;4.25;;
9773;SDS011;4926;42.670;23.316;2023-08-17T05:01:23;8.02;;;6.63;;
9773;SDS011;4926;42.670;23.316;2023-08-17T05:03:52;4.32;;;3.75;;
9773;SDS011;4926;42.670;23.316;2023-08-17T05:06:22;9.90;;;4.53;;
9773;SDS011;4926;42.670;23.316;2023-08-17T05:08:52;6.43;;;4.05;;
9773;SDS011;4926;42.670;23.316;2023-08-17T05:11:20;23.55;;;6.05;;
9773;SDS011;4926;42.670;23.316;2023-08-17T05:13:49;15.60;;;5.10;;
9773;SDS011;4926;42.670;23.316;2023-08-17T05:16:15;38.22;;;6.60;;
9773;SDS011;4926;42.670;23.316;2023-08-17T05:18:43;10.55;;;5.60;;
9773;SDS011;4926;42.670;23.316;2023-08-17T05:21:10;29.98;;;6.35;;
9773;SDS011;4926;42.670;23.316;2023-08-17T05:23:40;18.90;;;6.63;;
9773;SDS011;4926;42.670;23.316;2023-08-17T05:26:07;16.35;;;6.32;;
9773;SDS011;4926;42.670;23.316;2023-08-17T05:28:34;19.90;;;6.05;;
9773;SDS011;4926;42.670;23.316;2023-08-17T05:31:02;25.52;;;6.18;;
9773;SDS011;4926;42.670;23.316;2023-08-17T05:33:30;35.65;;;7.95;;
9773;SDS011;4926;42.670;23.316;2023-08-17T05:36:05;22.52;;;6.53;;
9773;SDS011;4926;42.670;23.316;2023-08-17T05:38:32;14.73;;;5.70;;
9773;SDS011;4926;42.670;23.316;2023-08-17T05:41:00;14.63;;;5.97;;
9773;SDS011;4926;42.670;23.316;2023-08-17T05:43:28;10.55;;;5.78;;
9773;SDS011;4926;42.670;23.316;2023-08-17T05:45:57;9.27;;;5.57;;
9773;SDS011;4926;42.670;23.316;2023-08-17T05:48:28;8.70;;;5.53;;
9773;SDS011;4926;42.670;23.316;2023-08-17T05:50:55;11.15;;;4.78;;
9773;SDS011;4926;42.670;23.316;2023-08-17T05:53:22;8.98;;;5.05;;
9773;SDS011;4926;42.670;23.316;2023-08-17T05:55:48;7.45;;;4.90;;
9773;SDS011;4926;42.670;23.316;2023-08-17T05:58:16;184.85;;;15.02;;
9773;SDS011;4926;42.670;23.316;2023-08-17T06:00:43;66.00;;;9.80;;
9773;SDS011;4926;42.670;23.316;2023-08-17T06:03:10;15.45;;;5.57;;
9773;SDS011;4926;42.670;23.316;2023-08-17T06:05:37;10.52;;;4.90;;
9773;SDS011;4926;42.670;23.316;2023-08-17T06:08:05;7.53;;;4.50;;
9773;SDS011;4926;42.670;23.316;2023-08-17T06:10:32;5.90;;;4.07;;
9773;SDS011;4926;42.670;23.316;2023-08-17T06:12:58;9.73;;;4.35;;
9773;SDS011;4926;42.670;23.316;2023-08-17T06:15:29;7.57;;;4.70;;
9773;SDS011;4926;42.670;23.316;2023-08-17T06:17:56;9.13;;;4.20;;
9773;SDS011;4926;42.670;23.316;2023-08-17T06:20:22;26.40;;;5.85;;
9773;SDS011;4926;42.670;23.316;2023-08-17T06:22:49;31.48;;;5.35;;
9773;SDS011;4926;42.670;23.316;2023-08-17T06:25:16;19.30;;;5.70;;
9773;SDS011;4926;42.670;23.316;2023-08-17T06:27:42;28.17;;;6.40;;
9773;SDS011;4926;42.670;23.316;2023-08-17T06:30:10;15.55;;;5.28;;
9773;SDS011;4926;42.670;23.316;2023-08-17T06:32:39;16.52;;;6.45;;
9773;SDS011;4926;42.670;23.316;2023-08-17T06:35:06;38.50;;;7.22;;
9773;SDS011;4926;42.670;23.316;2023-08-17T06:37:34;14.95;;;5.70;;
9773;SDS011;4926;42.670;23.316;2023-08-17T06:40:00;10.10;;;5.45;;
9773;SDS011;4926;42.670;23.316;2023-08-17T06:42:27;14.90;;;6.38;;
9773;SDS011;4926;42.670;23.316;2023-08-17T06:44:54;14.90;;;6.78;;
9773;SDS011;4926;42.670;23.316;2023-08-17T06:47:21;10.30;;;5.22;;
9773;SDS011;4926;42.670;23.316;2023-08-17T06:49:49;18.50;;;6.15;;
9773;SDS011;4926;42.670;23.316;2023-08-17T06:52:16;8.52;;;5.55;;
9773;SDS011;4926;42.670;23.316;2023-08-17T06:54:42;22.95;;;6.47;;
9773;SDS011;4926;42.670;23.316;2023-08-17T06:57:12;13.27;;;6.68;;
9773;SDS011;4926;42.670;23.316;2023-08-17T06:59:39;17.75;;;5.68;;
9773;SDS011;4926;42.670;23.316;2023-08-17T07:02:05;14.63;;;6.88;;
9773;SDS011;4926;42.670;23.316;2023-08-17T07:04:32;9.60;;;5.50;;
9773;SDS011;4926;42.670;23.316;2023-08-17T07:07:00;7.72;;;4.13;;
9773;SDS011;4926;42.670;23.316;2023-08-17T07:09:27;8.85;;;5.07;;
9773;SDS011;4926;42.670;23.316;2023-08-17T07:11:54;9.10;;;5.22;;
9773;SDS011;4926;42.670;23.316;2023-08-17T07:14:21;7.90;;;4.70;;
9773;SDS011;4926;42.670;23.316;2023-08-17T07:16:50;7.13;;;4.30;;
9773;SDS011;4926;42.670;23.316;2023-08-17T07:19:17;12.13;;;4.32;;
9773;SDS011;4926;42.670;23.316;2023-08-17T07:21:44;4.95;;;3.72;;
9773;SDS011;4926;42.670;23.316;2023-08-17T07:24:13;8.27;;;4.10;;
9773;SDS011;4926;42.670;23.316;2023-08-17T07:26:41;15.13;;;5.32;;
9773;SDS011;4926;42.670;23.316;2023-08-17T07:29:08;5.05;;;3.88;;
9773;SDS011;4926;42.670;23.316;2023-08-17T07:31:41;4.30;;;3.40;;
9773;SDS011;4926;42.670;23.316;2023-08-17T07:34:09;12.50;;;4.95;;
9773;SDS011;4926;42.670;23.316;2023-08-17T07:36:35;7.03;;;5.35;;
9773;SDS011;4926;42.670;23.316;2023-08-17T07:39:04;4.13;;;3.63;;
9773;SDS011;4926;42.670;23.316;2023-08-17T07:41:35;4.63;;;3.55;;
9773;SDS011;4926;42.670;23.316;2023-08-17T07:44:01;11.00;;;4.13;;
9773;SDS011;4926;42.670;23.316;2023-08-17T07:46:28;5.50;;;4.15;;
9773;SDS011;4926;42.670;23.316;2023-08-17T07:49:00;9.88;;;4.80;;
9773;SDS011;4926;42.670;23.316;2023-08-17T07:51:27;10.82;;;6.07;;
9773;SDS011;4926;42.670;23.316;2023-08-17T07:53:55;7.00;;;4.50;;
9773;SDS011;4926;42.670;23.316;2023-08-17T07:56:22;5.80;;;3.97;;
9773;SDS011;4926;42.670;23.316;2023-08-17T07:58:50;6.63;;;4.28;;
9773;SDS011;4926;42.670;23.316;2023-08-17T08:01:17;14.60;;;4.35;;
9773;SDS011;4926;42.670;23.316;2023-08-17T08:03:46;9.18;;;4.50;;
9773;SDS011;4926;42.670;23.316;2023-08-17T08:06:13;6.82;;;3.83;;
9773;SDS011;4926;42.670;23.316;2023-08-17T08:08:40;7.07;;;3.67;;
9773;SDS011;4926;42.670;23.316;2023-08-17T08:11:06;6.15;;;3.45;;
9773;SDS011;4926;42.670;23.316;2023-08-17T08:13:33;6.30;;;3.83;;
9773;SDS011;4926;42.670;23.316;2023-08-17T08:16:01;31.92;;;6.68;;
9773;SDS011;4926;42.670;23.316;2023-08-17T08:18:28;27.73;;;5.78;;
9773;SDS011;4926;42.670;23.316;2023-08-17T08:20:55;150.23;;;13.63;;
9773;SDS011;4926;42.670;23.316;2023-08-17T08:23:21;21.65;;;4.80;;
9773;SDS011;4926;42.670;23.316;2023-08-17T08:25:48;8.25;;;3.78;;
9773;SDS011;4926;42.670;23.316;2023-08-17T08:28:15;8.93;;;4.07;;
9773;SDS011;4926;42.670;23.316;2023-08-17T08:30:44;6.35;;;3.90;;
9773;SDS011;4926;42.670;23.316;2023-08-17T08:33:12;6.53;;;4.00;;
9773;SDS011;4926;42.670;23.316;2023-08-17T08:35:38;5.25;;;3.92;;
9773;SDS011;4926;42.670;23.316;2023-08-17T08:38:05;10.75;;;4.68;;
9773;SDS011;4926;42.670;23.316;2023-08-17T08:40:35;11.02;;;5.70;;
9773;SDS011;4926;42.670;23.316;2023-08-17T08:43:04;8.60;;;4.38;;
9773;SDS011;4926;42.670;23.316;2023-08-17T08:45:31;8.07;;;4.43;;
9773;SDS011;4926;42.670;23.316;2023-08-17T08:47:58;10.20;;;4.53;;
9773;SDS011;4926;42.670;23.316;2023-08-17T08:50:29;4.32;;;3.65;;
9773;SDS011;4926;42.670;23.316;2023-08-17T08:53:02;6.57;;;3.85;;
9773;SDS011;4926;42.670;23.316;2023-08-17T08:55:30;6.97;;;3.97;;
9773;SDS011;4926;42.670;23.316;2023-08-17T08:58:04;10.07;;;4.10;;
9773;SDS011;4926;42.670;23.316;2023-08-17T09:00:31;4.15;;;3.75;;
9773;SDS011;4926;42.670;23.316;2023-08-17T09:02:59;4.80;;;3.53;;
9773;SDS011;4926;42.670;23.316;2023-08-17T09:05:29;4.95;;;3.75;;
9773;SDS011;4926;42.670;23.316;2023-08-17T09:07:59;6.32;;;3.70;;
9773;SDS011;4926;42.670;23.316;2023-08-17T09:10:28;4.88;;;3.63;;
9773;SDS011;4926;42.670;23.316;2023-08-17T09:12:55;5.03;;;3.90;;
9773;SDS011;4926;42.670;23.316;2023-08-17T09:15:21;4.20;;;3.30;;
9773;SDS011;4926;42.670;23.316;2023-08-17T09:17:51;7.30;;;3.67;;
9773;SDS011;4926;42.670;23.316;2023-08-17T09:23:06;4.55;;;3.85;;
9773;SDS011;4926;42.670;23.316;2023-08-17T09:25:39;4.10;;;3.70;;
9773;SDS011;4926;42.670;23.316;2023-08-17T09:28:06;7.07;;;3.67;;
9773;SDS011;4926;42.670;23.316;2023-08-17T09:30:46;3.67;;;3.35;;
9773;SDS011;4926;42.670;23.316;2023-08-17T09:33:19;7.00;;;3.47;;
9773;SDS011;4926;42.670;23.316;2023-08-17T09:35:47;5.32;;;3.60;;
9773;SDS011;4926;42.670;23.316;2023-08-17T09:38:14;7.45;;;3.42;;
9773;SDS011;4926;42.670;23.316;2023-08-17T09:40:41;7.38;;;3.60;;
9773;SDS011;4926;42.670;23.316;2023-08-17T09:43:08;7.68;;;3.55;;
9773;SDS011;4926;42.670;23.316;2023-08-17T09:45:35;3.83;;;3.40;;
9773;SDS011;4926;42.670;23.316;2023-08-17T09:48:04;4.90;;;3.20;;
9773;SDS011;4926;42.670;23.316;2023-08-17T09:50:32;5.35;;;3.60;;
9773;SDS011;4926;42.670;23.316;2023-08-17T09:53:00;4.88;;;3.20;;
9773;SDS011;4926;42.670;23.316;2023-08-17T09:55:29;6.00;;;3.30;;
9773;SDS011;4926;42.670;23.316;2023-08-17T09:57:56;5.50;;;3.05;;
9773;SDS011;4926;42.670;23.316;2023-08-17T10:00:24;6.57;;;3.20;;
9773;SDS011;4926;42.670;23.316;2023-08-17T10:02:52;6.88;;;3.13;;
9773;SDS011;4926;42.670;23.316;2023-08-17T10:05:19;4.40;;;2.78;;
9773;SDS011;4926;42.670;23.316;2023-08-17T10:07:51;4.22;;;2.58;;
9773;SDS011;4926;42.670;23.316;2023-08-17T10:10:25;5.15;;;3.67;;
9773;SDS011;4926;42.670;23.316;2023-08-17T10:12:54;11.77;;;2.92;;
9773;SDS011;4926;42.670;23.316;2023-08-17T10:15:25;3.75;;;3.08;;
9773;SDS011;4926;42.670;23.316;2023-08-17T10:17:58;5.03;;;2.60;;
9773;SDS011;4926;42.670;23.316;2023-08-17T10:20:29;3.30;;;2.58;;
9773;SDS011;4926;42.670;23.316;2023-08-17T10:23:01;4.45;;;2.75;;
9773;SDS011;4926;42.670;23.316;2023-08-17T10:25:38;7.53;;;2.63;;
9773;SDS011;4926;42.670;23.316;2023-08-17T10:28:06;6.07;;;3.08;;
9773;SDS011;4926;42.670;23.316;2023-08-17T10:30:35;4.93;;;2.83;;
9773;SDS011;4926;42.670;23.316;2023-08-17T10:33:07;6.68;;;3.00;;
9773;SDS011;4926;42.670;23.316;2023-08-17T10:35:35;6.35;;;2.90;;
9773;SDS011;4926;42.670;23.316;2023-08-17T10:38:05;6.13;;;2.55;;
9773;SDS011;4926;42.670;23.316;2023-08-17T10:40:38;6.00;;;2.60;;
9773;SDS011;4926;42.670;23.316;2023-08-17T10:43:07;5.50;;;2.72;;
9773;SDS011;4926;42.670;23.316;2023-08-17T10:45:34;2.97;;;2.67;;
9773;SDS011;4926;42.670;23.316;2023-08-17T10:51:00;5.05;;;2.45;;
9773;SDS011;4926;42.670;23.316;2023-08-17T10:53:32;3.65;;;2.88;;
9773;SDS011;4926;42.670;23.316;2023-08-17T10:56:03;4.63;;;2.70;;
9773;SDS011;4926;42.670;23.316;2023-08-17T10:58:34;5.68;;;2.72;;
9773;SDS011;4926;42.670;23.316;2023-08-17T11:01:01;4.35;;;2.50;;
9773;SDS011;4926;42.670;23.316;2023-08-17T11:03:27;3.92;;;2.70;;
9773;SDS011;4926;42.670;23.316;2023-08-17T11:05:54;4.53;;;3.22;;
9773;SDS011;4926;42.670;23.316;2023-08-17T11:08:22;4.82;;;3.33;;
9773;SDS011;4926;42.670;23.316;2023-08-17T11:10:57;8.93;;;3.13;;
9773;SDS011;4926;42.670;23.316;2023-08-17T11:13:30;7.05;;;3.28;;
9773;SDS011;4926;42.670;23.316;2023-08-17T11:16:00;5.30;;;3.50;;
9773;SDS011;4926;42.670;23.316;2023-08-17T11:18:28;6.28;;;3.13;;
9773;SDS011;4926;42.670;23.316;2023-08-17T11:20:57;7.20;;;3.20;;
9773;SDS011;4926;42.670;23.316;2023-08-17T11:23:24;7.18;;;3.72;;
9773;SDS011;4926;42.670;23.316;2023-08-17T11:25:52;7.50;;;3.22;;
9773;SDS011;4926;42.670;23.316;2023-08-17T11:28:20;5.88;;;3.22;;
9773;SDS011;4926;42.670;23.316;2023-08-17T11:30:56;4.05;;;3.03;;
9773;SDS011;4926;42.670;23.316;2023-08-17T11:33:25;6.18;;;3.20;;
9773;SDS011;4926;42.670;23.316;2023-08-17T11:35:53;4.60;;;4.20;;
9773;SDS011;4926;42.670;23.316;2023-08-17T11:38:22;3.92;;;3.50;;
9773;SDS011;4926;42.670;23.316;2023-08-17T11:40:49;3.75;;;2.90;;
9773;SDS011;4926;42.670;23.316;2023-08-17T11:43:16;5.68;;;3.38;;
9773;SDS011;4926;42.670;23.316;2023-08-17T11:45:46;5.55;;;3.50;;
9773;SDS011;4926;42.670;23.316;2023-08-17T11:48:13;5.15;;;3.33;;
9773;SDS011;4926;42.670;23.316;2023-08-17T11:50:42;6.80;;;3.38;;
9773;SDS011;4926;42.670;23.316;2023-08-17T11:53:09;8.95;;;3.70;;
9773;SDS011;4926;42.670;23.316;2023-08-17T11:55:37;5.47;;;3.60;;
9773;SDS011;4926;42.670;23.316;2023-08-17T11:58:04;8.70;;;3.58;;
9773;SDS011;4926;42.670;23.316;2023-08-17T12:00:34;7.55;;;3.70;;
9773;SDS011;4926;42.670;23.316;2023-08-17T12:03:03;4.55;;;3.30;;
9773;SDS011;4926;42.670;23.316;2023-08-17T12:05:31;4.03;;;3.05;;
9773;SDS011;4926;42.670;23.316;2023-08-17T12:07:59;6.00;;;3.33;;
9773;SDS011;4926;42.670;23.316;2023-08-17T12:10:27;5.07;;;3.80;;
9773;SDS011;4926;42.670;23.316;2023-08-17T12:12:56;7.75;;;3.50;;
9773;SDS011;4926;42.670;23.316;2023-08-17T12:15:24;5.80;;;3.35;;
9773;SDS011;4926;42.670;23.316;2023-08-17T12:17:58;4.20;;;3.00;;
9773;SDS011;4926;42.670;23.316;2023-08-17T12:20:27;3.50;;;3.13;;
9773;SDS011;4926;42.670;23.316;2023-08-17T12:22:56;5.55;;;3.60;;
9773;SDS011;4926;42.670;23.316;2023-08-17T12:25:23;8.30;;;3.60;;
9773;SDS011;4926;42.670;23.316;2023-08-17T12:27:51;4.65;;;3.20;;
9773;SDS011;4926;42.670;23.316;2023-08-17T12:30:24;7.78;;;3.72;;
9773;SDS011;4926;42.670;23.316;2023-08-17T12:32:52;3.92;;;3.40;;
9773;SDS011;4926;42.670;23.316;2023-08-17T12:35:19;4.18;;;3.20;;
9773;SDS011;4926;42.670;23.316;2023-08-17T12:37:50;5.05;;;3.67;;
9773;SDS011;4926;42.670;23.316;2023-08-17T12:40:17;5.10;;;3.85;;
9773;SDS011;4926;42.670;23.316;2023-08-17T12:42:43;5.90;;;3.90;;
9773;SDS011;4926;42.670;23.316;2023-08-17T12:45:10;6.85;;;4.05;;
9773;SDS011;4926;42.670;23.316;2023-08-17T12:47:37;5.57;;;4.00;;
9773;SDS011;4926;42.670;23.316;2023-08-17T12:50:06;4.50;;;3.85;;
9773;SDS011;4926;42.670;23.316;2023-08-17T12:52:33;7.03;;;4.18;;
9773;SDS011;4926;42.670;23.316;2023-08-17T12:55:01;9.85;;;4.68;;
9773;SDS011;4926;42.670;23.316;2023-08-17T12:57:28;7.78;;;4.72;;
9773;SDS011;4926;42.670;23.316;2023-08-17T12:59:55;6.80;;;4.75;;
9773;SDS011;4926;42.670;23.316;2023-08-17T13:02:22;11.48;;;5.13;;
9773;SDS011;4926;42.670;23.316;2023-08-17T13:04:49;6.82;;;4.75;;
9773;SDS011;4926;42.670;23.316;2023-08-17T13:07:16;7.07;;;4.70;;
9773;SDS011;4926;42.670;23.316;2023-08-17T13:09:42;6.93;;;4.75;;
9773;SDS011;4926;42.670;23.316;2023-08-17T13:12:12;7.07;;;4.45;;
9773;SDS011;4926;42.670;23.316;2023-08-17T13:14:39;6.97;;;4.32;;
9773;SDS011;4926;42.670;23.316;2023-08-17T13:17:08;5.18;;;4.38;;
9773;SDS011;4926;42.670;23.316;2023-08-17T13:19:34;6.45;;;4.15;;
9773;SDS011;4926;42.670;23.316;2023-08-17T13:22:01;6.50;;;4.53;;
9773;SDS011;4926;42.670;23.316;2023-08-17T13:24:30;7.68;;;4.60;;
9773;SDS011;4926;42.670;23.316;2023-08-17T13:26:57;8.52;;;4.10;;
9773;SDS011;4926;42.670;23.316;2023-08-17T13:29:28;5.22;;;4.03;;
9773;SDS011;4926;42.670;23.316;2023-08-17T13:31:55;8.48;;;4.47;;
9773;SDS011;4926;42.670;23.316;2023-08-17T13:34:21;8.13;;;4.47;;
9773;SDS011;4926;42.670;23.316;2023-08-17T13:36:48;8.20;;;4.68;;
9773;SDS011;4926;42.670;23.316;2023-08-17T13:39:15;5.50;;;4.10;;
9773;SDS011;4926;42.670;23.316;2023-08-17T13:41:41;7.63;;;4.60;;
9773;SDS011;4926;42.670;23.316;2023-08-17T13:44:09;5.43;;;4.00;;
9773;SDS011;4926;42.670;23.316;2023-08-17T13:46:37;7.95;;;4.97;;
9773;SDS011;4926;42.670;23.316;2023-08-17T13:49:04;5.72;;;5.00;;
9773;SDS011;4926;42.670;23.316;2023-08-17T13:51:30;5.45;;;3.97;;
9773;SDS011;4926;42.670;23.316;2023-08-17T13:53:57;8.10;;;4.40;;
9773;SDS011;4926;42.670;23.316;2023-08-17T13:56:24;6.90;;;3.88;;
9773;SDS011;4926;42.670;23.316;2023-08-17T13:58:51;5.72;;;4.55;;
9773;SDS011;4926;42.670;23.316;2023-08-17T14:01:20;6.75;;;4.82;;
9773;SDS011;4926;42.670;23.316;2023-08-17T14:03:48;6.15;;;4.20;;
9773;SDS011;4926;42.670;23.316;2023-08-17T14:06:18;5.05;;;4.50;;
9773;SDS011;4926;42.670;23.316;2023-08-17T14:08:45;7.22;;;4.18;;
9773;SDS011;4926;42.670;23.316;2023-08-17T14:11:12;8.32;;;4.20;;
9773;SDS011;4926;42.670;23.316;2023-08-17T14:13:38;5.07;;;4.28;;
9773;SDS011;4926;42.670;23.316;2023-08-17T14:16:08;7.45;;;4.40;;
9773;SDS011;4926;42.670;23.316;2023-08-17T14:18:35;5.57;;;4.28;;
9773;SDS011;4926;42.670;23.316;2023-08-17T14:21:03;10.30;;;4.43;;
9773;SDS011;4926;42.670;23.316;2023-08-17T14:23:29;7.55;;;3.63;;
9773;SDS011;4926;42.670;23.316;2023-08-17T14:25:56;5.07;;;4.10;;
9773;SDS011;4926;42.670;23.316;2023-08-17T14:28:23;5.13;;;4.35;;
9773;SDS011;4926;42.670;23.316;2023-08-17T14:30:51;5.32;;;4.20;;
9773;SDS011;4926;42.670;23.316;2023-08-17T14:33:18;7.35;;;4.32;;
9773;SDS011;4926;42.670;23.316;2023-08-17T14:35:45;4.80;;;4.20;;
9773;SDS011;4926;42.670;23.316;2023-08-17T14:38:13;10.00;;;4.57;;
9773;SDS011;4926;42.670;23.316;2023-08-17T14:40:46;9.73;;;4.90;;
9773;SDS011;4926;42.670;23.316;2023-08-17T14:43:16;5.88;;;4.25;;
9773;SDS011;4926;42.670;23.316;2023-08-17T14:45:45;4.13;;;3.75;;
9773;SDS011;4926;42.670;23.316;2023-08-17T14:48:13;8.05;;;3.80;;
9773;SDS011;4926;42.670;23.316;2023-08-17T14:50:39;5.35;;;4.40;;
9773;SDS011;4926;42.670;23.316;2023-08-17T14:53:07;6.15;;;4.18;;
9773;SDS011;4926;42.670;23.316;2023-08-17T14:55:36;5.60;;;4.30;;
9773;SDS011;4926;42.670;23.316;2023-08-17T14:58:05;8.00;;;4.30;;
9773;SDS011;4926;42.670;23.316;2023-08-17T15:00:31;6.10;;;4.35;;
9773;SDS011;4926;42.670;23.316;2023-08-17T15:02:58;9.00;;;4.50;;
9773;SDS011;4926;42.670;23.316;2023-08-17T15:05:25;5.75;;;3.65;;
9773;SDS011;4926;42.670;23.316;2023-08-17T15:07:52;8.07;;;4.20;;
9773;SDS011;4926;42.670;23.316;2023-08-17T15:10:19;6.85;;;3.75;;